sensor_id;sensor_type;location;lat;lon;timestamp;temperature;humidity
2657;DHT22;1338;48.176;11.792;2023-08-30T00:01:06;9.60;1.00
2657;DHT22;1338;48.176;11.792;2023-08-30T00:03:35;9.60;1.00
2657;DHT22;1338;48.176;11.792;2023-08-30T00:06:05;9.60;1.00
2657;DHT22;1338;48.176;11.792;2023-08-30T00:08:33;9.60;1.00
2657;DHT22;1338;48.176;11.792;2023-08-30T00:11:04;9.60;1.00
2657;DHT22;1338;48.176;11.792;2023-08-30T00:13:33;9.60;1.00
2657;DHT22;1338;48.176;11.792;2023-08-30T00:16:01;9.70;1.00
2657;DHT22;1338;48.176;11.792;2023-08-30T00:18:31;9.60;1.00
2657;DHT22;1338;48.176;11.792;2023-08-30T00:20:59;9.70;1.00
2657;DHT22;1338;48.176;11.792;2023-08-30T00:23:28;9.70;1.00
2657;DHT22;1338;48.176;11.792;2023-08-30T00:25:57;9.70;1.00
2657;DHT22;1338;48.176;11.792;2023-08-30T00:28:27;9.70;1.00
2657;DHT22;1338;48.176;11.792;2023-08-30T00:30:55;9.70;1.00
2657;DHT22;1338;48.176;11.792;2023-08-30T00:33:24;9.70;1.00
2657;DHT22;1338;48.176;11.792;2023-08-30T00:35:56;9.70;1.00
2657;DHT22;1338;48.176;11.792;2023-08-30T00:38:26;9.70;1.00
2657;DHT22;1338;48.176;11.792;2023-08-30T00:40:55;9.70;1.00
2657;DHT22;1338;48.176;11.792;2023-08-30T00:43:24;9.70;1.00
2657;DHT22;1338;48.176;11.792;2023-08-30T00:45:55;9.70;1.00
2657;DHT22;1338;48.176;11.792;2023-08-30T00:48:24;9.70;1.00
2657;DHT22;1338;48.176;11.792;2023-08-30T00:50:53;9.60;1.00
2657;DHT22;1338;48.176;11.792;2023-08-30T00:53:22;9.60;1.00
2657;DHT22;1338;48.176;11.792;2023-08-30T00:55:51;9.60;1.00
2657;DHT22;1338;48.176;11.792;2023-08-30T00:58:20;9.60;1.00
2657;DHT22;1338;48.176;11.792;2023-08-30T01:00:49;9.60;1.00
2657;DHT22;1338;48.176;11.792;2023-08-30T01:03:20;9.50;1.00
2657;DHT22;1338;48.176;11.792;2023-08-30T01:05:49;9.50;1.00
2657;DHT22;1338;48.176;11.792;2023-08-30T01:08:18;9.50;1.00
2657;DHT22;1338;48.176;11.792;2023-08-30T01:10:53;9.50;1.00
2657;DHT22;1338;48.176;11.792;2023-08-30T01:13:26;9.50;1.00
2657;DHT22;1338;48.176;11.792;2023-08-30T01:15:58;9.40;1.00
2657;DHT22;1338;48.176;11.792;2023-08-30T01:18:33;9.50;1.00
2657;DHT22;1338;48.176;11.792;2023-08-30T01:21:03;9.50;1.00
2657;DHT22;1338;48.176;11.792;2023-08-30T01:23:40;9.40;1.00
2657;DHT22;1338;48.176;11.792;2023-08-30T01:26:14;9.40;1.00
2657;DHT22;1338;48.176;11.792;2023-08-30T01:28:51;9.50;1.00
2657;DHT22;1338;48.176;11.792;2023-08-30T01:31:21;9.50;1.00
2657;DHT22;1338;48.176;11.792;2023-08-30T01:33:52;9.50;1.00
2657;DHT22;1338;48.176;11.792;2023-08-30T01:36:21;9.50;1.00
2657;DHT22;1338;48.176;11.792;2023-08-30T01:38:51;9.50;1.00
2657;DHT22;1338;48.176;11.792;2023-08-30T01:41:19;9.50;1.00
2657;DHT22;1338;48.176;11.792;2023-08-30T01:43:52;9.40;1.00
2657;DHT22;1338;48.176;11.792;2023-08-30T01:46:23;9.50;1.00
2657;DHT22;1338;48.176;11.792;2023-08-30T01:48:52;9.50;1.00
2657;DHT22;1338;48.176;11.792;2023-08-30T01:51:22;9.50;1.00
2657;DHT22;1338;48.176;11.792;2023-08-30T01:53:52;9.50;1.00
2657;DHT22;1338;48.176;11.792;2023-08-30T01:56:22;9.40;1.00
2657;DHT22;1338;48.176;11.792;2023-08-30T01:58:52;9.40;1.00
2657;DHT22;1338;48.176;11.792;2023-08-30T02:01:21;9.50;1.00
2657;DHT22;1338;48.176;11.792;2023-08-30T02:03:49;9.50;1.00
2657;DHT22;1338;48.176;11.792;2023-08-30T02:06:22;9.50;1.00
2657;DHT22;1338;48.176;11.792;2023-08-30T02:08:55;9.50;1.00
2657;DHT22;1338;48.176;11.792;2023-08-30T02:11:28;9.50;1.00
2657;DHT22;1338;48.176;11.792;2023-08-30T02:13:59;9.50;1.00
2657;DHT22;1338;48.176;11.792;2023-08-30T02:16:30;9.40;1.00
2657;DHT22;1338;48.176;11.792;2023-08-30T02:19:00;9.50;1.00
2657;DHT22;1338;48.176;11.792;2023-08-30T02:21:29;9.40;1.00
2657;DHT22;1338;48.176;11.792;2023-08-30T02:23:58;9.40;1.00
2657;DHT22;1338;48.176;11.792;2023-08-30T02:26:30;9.50;1.00
2657;DHT22;1338;48.176;11.792;2023-08-30T02:29:00;9.40;1.00
2657;DHT22;1338;48.176;11.792;2023-08-30T02:31:28;9.40;1.00
2657;DHT22;1338;48.176;11.792;2023-08-30T02:33:57;9.40;1.00
2657;DHT22;1338;48.176;11.792;2023-08-30T02:36:26;9.30;1.00
2657;DHT22;1338;48.176;11.792;2023-08-30T02:38:56;9.30;1.00
2657;DHT22;1338;48.176;11.792;2023-08-30T02:41:24;9.30;1.00
2657;DHT22;1338;48.176;11.792;2023-08-30T02:43:53;9.30;1.00
2657;DHT22;1338;48.176;11.792;2023-08-30T02:46:23;9.30;1.00
2657;DHT22;1338;48.176;11.792;2023-08-30T02:48:51;9.30;1.00
2657;DHT22;1338;48.176;11.792;2023-08-30T02:51:20;9.30;1.00
2657;DHT22;1338;48.176;11.792;2023-08-30T02:53:49;9.30;1.00
2657;DHT22;1338;48.176;11.792;2023-08-30T02:56:17;9.40;1.00
2657;DHT22;1338;48.176;11.792;2023-08-30T02:58:46;9.40;1.00
2657;DHT22;1338;48.176;11.792;2023-08-30T03:01:14;9.40;1.00
2657;DHT22;1338;48.176;11.792;2023-08-30T03:03:45;9.40;1.00
2657;DHT22;1338;48.176;11.792;2023-08-30T03:06:17;9.40;1.00
2657;DHT22;1338;48.176;11.792;2023-08-30T03:08:46;9.40;1.00
2657;DHT22;1338;48.176;11.792;2023-08-30T03:11:15;9.40;1.00
2657;DHT22;1338;48.176;11.792;2023-08-30T03:13:49;9.40;1.00
2657;DHT22;1338;48.176;11.792;2023-08-30T03:16:17;9.30;1.00
2657;DHT22;1338;48.176;11.792;2023-08-30T03:18:48;9.40;1.00
2657;DHT22;1338;48.176;11.792;2023-08-30T03:21:16;9.40;1.00
2657;DHT22;1338;48.176;11.792;2023-08-30T03:23:45;9.40;1.00
2657;DHT22;1338;48.176;11.792;2023-08-30T03:26:15;9.30;1.00
2657;DHT22;1338;48.176;11.792;2023-08-30T03:28:44;9.40;1.00
2657;DHT22;1338;48.176;11.792;2023-08-30T03:31:14;9.40;1.00
2657;DHT22;1338;48.176;11.792;2023-08-30T03:33:45;9.40;1.00
2657;DHT22;1338;48.176;11.792;2023-08-30T03:36:17;9.40;1.00
2657;DHT22;1338;48.176;11.792;2023-08-30T03:38:46;9.40;1.00
2657;DHT22;1338;48.176;11.792;2023-08-30T03:41:15;9.40;1.00
2657;DHT22;1338;48.176;11.792;2023-08-30T03:43:44;9.40;1.00
2657;DHT22;1338;48.176;11.792;2023-08-30T03:46:12;9.50;1.00
2657;DHT22;1338;48.176;11.792;2023-08-30T03:48:41;9.40;1.00
2657;DHT22;1338;48.176;11.792;2023-08-30T03:51:10;9.40;1.00
2657;DHT22;1338;48.176;11.792;2023-08-30T03:53:41;9.40;1.00
2657;DHT22;1338;48.176;11.792;2023-08-30T03:56:09;9.60;99.90
2657;DHT22;1338;48.176;11.792;2023-08-30T03:58:38;9.50;99.90
2657;DHT22;1338;48.176;11.792;2023-08-30T04:01:07;9.50;99.90
2657;DHT22;1338;48.176;11.792;2023-08-30T04:03:37;9.50;1.00
2657;DHT22;1338;48.176;11.792;2023-08-30T04:06:07;9.40;1.00
2657;DHT22;1338;48.176;11.792;2023-08-30T04:08:36;9.40;1.00
2657;DHT22;1338;48.176;11.792;2023-08-30T04:11:07;9.40;1.00
2657;DHT22;1338;48.176;11.792;2023-08-30T04:13:35;9.40;1.00
2657;DHT22;1338;48.176;11.792;2023-08-30T04:16:04;9.40;1.00
2657;DHT22;1338;48.176;11.792;2023-08-30T04:18:32;9.40;1.00
2657;DHT22;1338;48.176;11.792;2023-08-30T04:21:01;9.30;1.00
2657;DHT22;1338;48.176;11.792;2023-08-30T04:23:30;9.30;1.00
2657;DHT22;1338;48.176;11.792;2023-08-30T04:25:59;9.40;1.00
2657;DHT22;1338;48.176;11.792;2023-08-30T04:28:29;9.40;1.00
2657;DHT22;1338;48.176;11.792;2023-08-30T04:30:58;9.40;1.00
2657;DHT22;1338;48.176;11.792;2023-08-30T04:33:27;9.30;1.00
2657;DHT22;1338;48.176;11.792;2023-08-30T04:35:55;9.40;1.00
2657;DHT22;1338;48.176;11.792;2023-08-30T04:38:25;9.40;1.00
2657;DHT22;1338;48.176;11.792;2023-08-30T04:40:57;9.40;1.00
2657;DHT22;1338;48.176;11.792;2023-08-30T04:43:30;9.40;99.90
2657;DHT22;1338;48.176;11.792;2023-08-30T04:45:59;9.40;99.90
2657;DHT22;1338;48.176;11.792;2023-08-30T04:48:28;9.40;99.90
2657;DHT22;1338;48.176;11.792;2023-08-30T04:51:01;9.50;99.90
2657;DHT22;1338;48.176;11.792;2023-08-30T04:53:30;9.50;99.90
2657;DHT22;1338;48.176;11.792;2023-08-30T04:55:59;9.50;99.90
2657;DHT22;1338;48.176;11.792;2023-08-30T04:58:31;9.50;99.90
2657;DHT22;1338;48.176;11.792;2023-08-30T05:00:59;9.50;99.90
2657;DHT22;1338;48.176;11.792;2023-08-30T05:03:28;9.50;99.90
2657;DHT22;1338;48.176;11.792;2023-08-30T05:05:59;9.50;99.90
2657;DHT22;1338;48.176;11.792;2023-08-30T05:08:28;9.60;99.90
2657;DHT22;1338;48.176;11.792;2023-08-30T05:10:57;9.60;99.90
2657;DHT22;1338;48.176;11.792;2023-08-30T05:13:25;9.60;99.90
2657;DHT22;1338;48.176;11.792;2023-08-30T05:15:55;9.60;99.90
2657;DHT22;1338;48.176;11.792;2023-08-30T05:18:24;9.60;99.90
2657;DHT22;1338;48.176;11.792;2023-08-30T05:20:53;9.60;99.90
2657;DHT22;1338;48.176;11.792;2023-08-30T05:23:21;9.60;99.90
2657;DHT22;1338;48.176;11.792;2023-08-30T05:25:50;9.60;99.90
2657;DHT22;1338;48.176;11.792;2023-08-30T05:28:19;9.60;99.90
2657;DHT22;1338;48.176;11.792;2023-08-30T05:30:47;9.60;99.90
2657;DHT22;1338;48.176;11.792;2023-08-30T05:33:39;9.60;99.90
2657;DHT22;1338;48.176;11.792;2023-08-30T05:36:26;9.60;99.90
2657;DHT22;1338;48.176;11.792;2023-08-30T05:39:17;9.60;99.90
2657;DHT22;1338;48.176;11.792;2023-08-30T05:41:50;9.70;99.90
2657;DHT22;1338;48.176;11.792;2023-08-30T05:44:20;9.70;99.90
2657;DHT22;1338;48.176;11.792;2023-08-30T05:46:49;9.70;99.90
2657;DHT22;1338;48.176;11.792;2023-08-30T05:49:20;9.70;99.90
2657;DHT22;1338;48.176;11.792;2023-08-30T05:51:49;9.70;1.00
2657;DHT22;1338;48.176;11.792;2023-08-30T05:54:19;9.80;1.00
2657;DHT22;1338;48.176;11.792;2023-08-30T05:56:48;9.80;1.00
2657;DHT22;1338;48.176;11.792;2023-08-30T05:59:16;9.90;1.00
2657;DHT22;1338;48.176;11.792;2023-08-30T06:01:46;9.90;42.20
2657;DHT22;1338;48.176;11.792;2023-08-30T06:04:18;10.00;18.80
2657;DHT22;1338;48.176;11.792;2023-08-30T06:06:47;9.90;1.00
2657;DHT22;1338;48.176;11.792;2023-08-30T06:09:16;9.90;1.00
2657;DHT22;1338;48.176;11.792;2023-08-30T06:11:45;10.00;1.00
2657;DHT22;1338;48.176;11.792;2023-08-30T06:14:13;10.00;1.00
2657;DHT22;1338;48.176;11.792;2023-08-30T06:16:42;10.00;1.00
2657;DHT22;1338;48.176;11.792;2023-08-30T06:19:11;10.10;1.00
2657;DHT22;1338;48.176;11.792;2023-08-30T06:21:41;10.20;1.00
2657;DHT22;1338;48.176;11.792;2023-08-30T06:24:10;10.30;1.00
2657;DHT22;1338;48.176;11.792;2023-08-30T06:26:39;10.30;1.00
2657;DHT22;1338;48.176;11.792;2023-08-30T06:29:07;10.30;1.00
2657;DHT22;1338;48.176;11.792;2023-08-30T06:31:36;10.30;1.00
2657;DHT22;1338;48.176;11.792;2023-08-30T06:34:06;10.40;1.00
2657;DHT22;1338;48.176;11.792;2023-08-30T06:36:35;10.50;1.00
2657;DHT22;1338;48.176;11.792;2023-08-30T06:39:06;10.60;1.00
2657;DHT22;1338;48.176;11.792;2023-08-30T06:41:34;10.70;1.00
2657;DHT22;1338;48.176;11.792;2023-08-30T06:44:03;10.80;1.00
2657;DHT22;1338;48.176;11.792;2023-08-30T06:46:32;10.80;99.90
2657;DHT22;1338;48.176;11.792;2023-08-30T06:49:01;10.80;99.90
2657;DHT22;1338;48.176;11.792;2023-08-30T06:51:29;10.90;99.90
2657;DHT22;1338;48.176;11.792;2023-08-30T06:53:58;10.90;99.90
2657;DHT22;1338;48.176;11.792;2023-08-30T06:56:29;10.40;99.90
2657;DHT22;1338;48.176;11.792;2023-08-30T06:58:58;10.50;99.90
2657;DHT22;1338;48.176;11.792;2023-08-30T07:01:26;10.60;99.90
2657;DHT22;1338;48.176;11.792;2023-08-30T07:03:55;10.60;99.90
2657;DHT22;1338;48.176;11.792;2023-08-30T07:06:24;10.70;99.90
2657;DHT22;1338;48.176;11.792;2023-08-30T07:08:57;10.80;99.90
2657;DHT22;1338;48.176;11.792;2023-08-30T07:11:25;10.80;99.90
2657;DHT22;1338;48.176;11.792;2023-08-30T07:14:02;10.80;1.00
2657;DHT22;1338;48.176;11.792;2023-08-30T07:16:31;10.90;1.00
2657;DHT22;1338;48.176;11.792;2023-08-30T07:18:59;10.90;1.00
2657;DHT22;1338;48.176;11.792;2023-08-30T07:21:29;10.90;1.00
2657;DHT22;1338;48.176;11.792;2023-08-30T07:23:57;11.10;49.30
2657;DHT22;1338;48.176;11.792;2023-08-30T07:26:26;11.20;1.00
2657;DHT22;1338;48.176;11.792;2023-08-30T07:28:54;11.20;1.00
2657;DHT22;1338;48.176;11.792;2023-08-30T07:31:24;11.10;1.00
2657;DHT22;1338;48.176;11.792;2023-08-30T07:33:53;11.20;1.00
2657;DHT22;1338;48.176;11.792;2023-08-30T07:36:23;11.10;1.00
2657;DHT22;1338;48.176;11.792;2023-08-30T07:39:11;11.20;1.00
2657;DHT22;1338;48.176;11.792;2023-08-30T07:41:39;11.50;1.00
2657;DHT22;1338;48.176;11.792;2023-08-30T07:44:10;11.40;1.00
2657;DHT22;1338;48.176;11.792;2023-08-30T07:46:40;11.30;1.00
2657;DHT22;1338;48.176;11.792;2023-08-30T07:49:09;11.30;1.00
2657;DHT22;1338;48.176;11.792;2023-08-30T07:51:38;11.30;1.00
2657;DHT22;1338;48.176;11.792;2023-08-30T07:54:06;11.40;1.00
2657;DHT22;1338;48.176;11.792;2023-08-30T07:56:34;11.40;1.00
2657;DHT22;1338;48.176;11.792;2023-08-30T07:59:03;11.40;1.00
2657;DHT22;1338;48.176;11.792;2023-08-30T08:01:31;11.50;1.00
2657;DHT22;1338;48.176;11.792;2023-08-30T08:04:02;11.60;1.00
2657;DHT22;1338;48.176;11.792;2023-08-30T08:06:34;11.70;1.00
2657;DHT22;1338;48.176;11.792;2023-08-30T08:09:04;11.80;1.00
2657;DHT22;1338;48.176;11.792;2023-08-30T08:11:34;11.90;1.00
2657;DHT22;1338;48.176;11.792;2023-08-30T08:14:03;11.80;1.00
2657;DHT22;1338;48.176;11.792;2023-08-30T08:16:32;12.00;1.00
2657;DHT22;1338;48.176;11.792;2023-08-30T08:19:02;11.90;99.90
2657;DHT22;1338;48.176;11.792;2023-08-30T08:21:30;12.00;1.00
2657;DHT22;1338;48.176;11.792;2023-08-30T08:23:59;12.10;99.90
2657;DHT22;1338;48.176;11.792;2023-08-30T08:26:28;12.00;99.90
2657;DHT22;1338;48.176;11.792;2023-08-30T08:28:56;12.10;99.90
2657;DHT22;1338;48.176;11.792;2023-08-30T08:31:24;12.30;99.90
2657;DHT22;1338;48.176;11.792;2023-08-30T08:34:08;12.50;99.90
2657;DHT22;1338;48.176;11.792;2023-08-30T08:36:38;12.50;99.90
2657;DHT22;1338;48.176;11.792;2023-08-30T08:39:06;12.60;99.90
2657;DHT22;1338;48.176;11.792;2023-08-30T08:41:39;12.70;99.90
2657;DHT22;1338;48.176;11.792;2023-08-30T08:44:09;12.80;99.90
2657;DHT22;1338;48.176;11.792;2023-08-30T08:46:39;12.90;99.90
2657;DHT22;1338;48.176;11.792;2023-08-30T08:49:12;13.00;99.90
2657;DHT22;1338;48.176;11.792;2023-08-30T08:51:42;12.70;99.90
2657;DHT22;1338;48.176;11.792;2023-08-30T08:54:12;12.70;99.90
2657;DHT22;1338;48.176;11.792;2023-08-30T08:56:40;12.90;99.90
2657;DHT22;1338;48.176;11.792;2023-08-30T08:59:09;12.90;99.90
2657;DHT22;1338;48.176;11.792;2023-08-30T09:01:39;13.20;99.90
2657;DHT22;1338;48.176;11.792;2023-08-30T09:04:11;12.60;99.90
2657;DHT22;1338;48.176;11.792;2023-08-30T09:06:40;12.90;99.90
2657;DHT22;1338;48.176;11.792;2023-08-30T09:09:11;12.90;59.80
2657;DHT22;1338;48.176;11.792;2023-08-30T09:11:40;13.00;99.90
2657;DHT22;1338;48.176;11.792;2023-08-30T09:14:17;13.20;5.40
2657;DHT22;1338;48.176;11.792;2023-08-30T09:16:54;13.50;1.00
2657;DHT22;1338;48.176;11.792;2023-08-30T09:19:25;13.60;1.00
2657;DHT22;1338;48.176;11.792;2023-08-30T09:21:53;13.80;1.00
2657;DHT22;1338;48.176;11.792;2023-08-30T09:24:23;14.20;1.00
2657;DHT22;1338;48.176;11.792;2023-08-30T09:26:53;14.70;1.00
2657;DHT22;1338;48.176;11.792;2023-08-30T09:29:22;15.10;1.00
2657;DHT22;1338;48.176;11.792;2023-08-30T09:31:52;14.90;1.00
2657;DHT22;1338;48.176;11.792;2023-08-30T09:34:22;15.30;1.00
2657;DHT22;1338;48.176;11.792;2023-08-30T09:36:53;14.50;1.00
2657;DHT22;1338;48.176;11.792;2023-08-30T09:39:22;14.20;1.00
2657;DHT22;1338;48.176;11.792;2023-08-30T09:41:51;14.60;1.00
2657;DHT22;1338;48.176;11.792;2023-08-30T09:44:22;14.60;1.00
2657;DHT22;1338;48.176;11.792;2023-08-30T09:46:53;14.90;1.00
2657;DHT22;1338;48.176;11.792;2023-08-30T09:49:25;14.50;1.00
2657;DHT22;1338;48.176;11.792;2023-08-30T09:51:55;14.70;1.00
2657;DHT22;1338;48.176;11.792;2023-08-30T09:54:25;14.70;1.00
2657;DHT22;1338;48.176;11.792;2023-08-30T09:57:06;14.60;1.00
2657;DHT22;1338;48.176;11.792;2023-08-30T09:59:35;14.40;1.00
2657;DHT22;1338;48.176;11.792;2023-08-30T10:02:05;14.40;1.00
2657;DHT22;1338;48.176;11.792;2023-08-30T10:04:38;14.70;1.00
2657;DHT22;1338;48.176;11.792;2023-08-30T10:07:09;15.00;1.00
2657;DHT22;1338;48.176;11.792;2023-08-30T10:09:38;15.20;1.00
2657;DHT22;1338;48.176;11.792;2023-08-30T10:12:28;15.40;1.00
2657;DHT22;1338;48.176;11.792;2023-08-30T10:14:57;16.00;1.00
2657;DHT22;1338;48.176;11.792;2023-08-30T10:17:46;16.20;99.90
2657;DHT22;1338;48.176;11.792;2023-08-30T10:20:16;16.20;99.90
2657;DHT22;1338;48.176;11.792;2023-08-30T10:22:47;16.60;99.90
2657;DHT22;1338;48.176;11.792;2023-08-30T10:25:20;16.70;99.90
2657;DHT22;1338;48.176;11.792;2023-08-30T10:27:50;16.70;99.90
2657;DHT22;1338;48.176;11.792;2023-08-30T10:30:21;16.00;99.90
2657;DHT22;1338;48.176;11.792;2023-08-30T10:32:51;16.40;99.90
2657;DHT22;1338;48.176;11.792;2023-08-30T10:35:19;16.70;99.90
2657;DHT22;1338;48.176;11.792;2023-08-30T10:37:56;16.60;99.90
2657;DHT22;1338;48.176;11.792;2023-08-30T10:40:25;16.70;99.90
2657;DHT22;1338;48.176;11.792;2023-08-30T10:43:00;17.00;80.70
2657;DHT22;1338;48.176;11.792;2023-08-30T10:45:29;16.60;53.40
2657;DHT22;1338;48.176;11.792;2023-08-30T10:48:00;16.70;52.70
2657;DHT22;1338;48.176;11.792;2023-08-30T10:50:30;17.40;96.60
2657;DHT22;1338;48.176;11.792;2023-08-30T10:53:01;17.80;13.40
2657;DHT22;1338;48.176;11.792;2023-08-30T10:55:31;18.80;1.00
2657;DHT22;1338;48.176;11.792;2023-08-30T10:58:01;18.50;1.00
2657;DHT22;1338;48.176;11.792;2023-08-30T11:00:31;17.30;1.00
2657;DHT22;1338;48.176;11.792;2023-08-30T11:03:00;17.60;1.00
2657;DHT22;1338;48.176;11.792;2023-08-30T11:05:30;17.40;1.00
2657;DHT22;1338;48.176;11.792;2023-08-30T11:08:00;16.90;1.00
2657;DHT22;1338;48.176;11.792;2023-08-30T11:10:29;17.60;1.00
2657;DHT22;1338;48.176;11.792;2023-08-30T11:12:57;17.50;1.00
2657;DHT22;1338;48.176;11.792;2023-08-30T11:15:26;17.50;1.00
2657;DHT22;1338;48.176;11.792;2023-08-30T11:18:02;17.50;1.00
2657;DHT22;1338;48.176;11.792;2023-08-30T11:20:31;17.80;1.00
2657;DHT22;1338;48.176;11.792;2023-08-30T11:23:02;17.40;1.00
2657;DHT22;1338;48.176;11.792;2023-08-30T11:25:31;17.00;1.00
2657;DHT22;1338;48.176;11.792;2023-08-30T11:28:04;17.50;1.00
2657;DHT22;1338;48.176;11.792;2023-08-30T11:30:32;18.00;1.00
2657;DHT22;1338;48.176;11.792;2023-08-30T11:33:03;17.60;1.00
2657;DHT22;1338;48.176;11.792;2023-08-30T11:35:32;17.50;1.00
2657;DHT22;1338;48.176;11.792;2023-08-30T11:38:02;16.80;1.00
2657;DHT22;1338;48.176;11.792;2023-08-30T11:40:32;16.80;1.00
2657;DHT22;1338;48.176;11.792;2023-08-30T11:43:02;16.80;1.00
2657;DHT22;1338;48.176;11.792;2023-08-30T11:45:32;16.10;1.00
2657;DHT22;1338;48.176;11.792;2023-08-30T11:48:02;15.70;1.00
2657;DHT22;1338;48.176;11.792;2023-08-30T11:50:31;15.90;62.00
2657;DHT22;1338;48.176;11.792;2023-08-30T11:53:16;16.10;1.00
2657;DHT22;1338;48.176;11.792;2023-08-30T11:55:45;16.80;1.00
2657;DHT22;1338;48.176;11.792;2023-08-30T11:58:14;17.20;1.00
2657;DHT22;1338;48.176;11.792;2023-08-30T12:00:42;17.00;1.00
2657;DHT22;1338;48.176;11.792;2023-08-30T12:03:13;17.00;1.00
2657;DHT22;1338;48.176;11.792;2023-08-30T12:05:45;17.30;1.00
2657;DHT22;1338;48.176;11.792;2023-08-30T12:08:24;16.80;1.00
2657;DHT22;1338;48.176;11.792;2023-08-30T12:10:54;17.20;1.00
2657;DHT22;1338;48.176;11.792;2023-08-30T12:13:23;17.50;1.00
2657;DHT22;1338;48.176;11.792;2023-08-30T12:15:52;18.10;1.00
2657;DHT22;1338;48.176;11.792;2023-08-30T12:18:22;18.60;1.00
2657;DHT22;1338;48.176;11.792;2023-08-30T12:20:52;18.50;1.00
2657;DHT22;1338;48.176;11.792;2023-08-30T12:23:23;18.30;1.00
2657;DHT22;1338;48.176;11.792;2023-08-30T12:25:59;19.30;1.00
2657;DHT22;1338;48.176;11.792;2023-08-30T12:28:28;19.90;1.00
2657;DHT22;1338;48.176;11.792;2023-08-30T12:30:57;20.00;1.00
2657;DHT22;1338;48.176;11.792;2023-08-30T12:33:29;19.90;1.00
2657;DHT22;1338;48.176;11.792;2023-08-30T12:35:58;20.40;1.00
2657;DHT22;1338;48.176;11.792;2023-08-30T12:38:28;20.10;1.00
2657;DHT22;1338;48.176;11.792;2023-08-30T12:40:57;19.60;1.00
2657;DHT22;1338;48.176;11.792;2023-08-30T12:43:26;19.30;1.00
2657;DHT22;1338;48.176;11.792;2023-08-30T12:45:54;19.00;1.00
2657;DHT22;1338;48.176;11.792;2023-08-30T12:48:23;18.80;1.00
2657;DHT22;1338;48.176;11.792;2023-08-30T12:50:52;18.30;1.00
2657;DHT22;1338;48.176;11.792;2023-08-30T12:53:20;18.20;1.00
2657;DHT22;1338;48.176;11.792;2023-08-30T12:55:51;18.20;1.00
2657;DHT22;1338;48.176;11.792;2023-08-30T12:58:19;18.60;1.00
2657;DHT22;1338;48.176;11.792;2023-08-30T13:00:48;18.50;1.00
2657;DHT22;1338;48.176;11.792;2023-08-30T13:03:17;18.40;1.00
2657;DHT22;1338;48.176;11.792;2023-08-30T13:05:46;18.30;1.00
2657;DHT22;1338;48.176;11.792;2023-08-30T13:08:14;17.90;1.00
2657;DHT22;1338;48.176;11.792;2023-08-30T13:10:43;18.00;1.00
2657;DHT22;1338;48.176;11.792;2023-08-30T13:13:13;18.10;1.00
2657;DHT22;1338;48.176;11.792;2023-08-30T13:15:43;17.40;1.00
2657;DHT22;1338;48.176;11.792;2023-08-30T13:18:12;17.00;1.00
2657;DHT22;1338;48.176;11.792;2023-08-30T13:20:40;16.90;1.00
2657;DHT22;1338;48.176;11.792;2023-08-30T13:23:09;17.20;1.00
2657;DHT22;1338;48.176;11.792;2023-08-30T13:25:39;17.30;1.00
2657;DHT22;1338;48.176;11.792;2023-08-30T13:28:08;17.10;1.00
2657;DHT22;1338;48.176;11.792;2023-08-30T13:30:43;17.10;1.00
2657;DHT22;1338;48.176;11.792;2023-08-30T13:33:12;16.70;1.00
2657;DHT22;1338;48.176;11.792;2023-08-30T13:35:41;16.70;1.00
2657;DHT22;1338;48.176;11.792;2023-08-30T13:38:10;16.40;1.00
2657;DHT22;1338;48.176;11.792;2023-08-30T13:40:39;16.70;1.00
2657;DHT22;1338;48.176;11.792;2023-08-30T13:43:07;16.90;1.00
2657;DHT22;1338;48.176;11.792;2023-08-30T13:45:38;16.70;1.00
2657;DHT22;1338;48.176;11.792;2023-08-30T13:48:07;16.30;1.00
2657;DHT22;1338;48.176;11.792;2023-08-30T13:50:41;16.30;1.00
2657;DHT22;1338;48.176;11.792;2023-08-30T13:53:09;16.20;1.00
2657;DHT22;1338;48.176;11.792;2023-08-30T13:55:39;16.20;1.00
2657;DHT22;1338;48.176;11.792;2023-08-30T13:58:07;16.30;1.00
2657;DHT22;1338;48.176;11.792;2023-08-30T14:00:38;16.20;1.00
2657;DHT22;1338;48.176;11.792;2023-08-30T14:03:06;16.00;1.00
2657;DHT22;1338;48.176;11.792;2023-08-30T14:05:37;15.90;1.00
2657;DHT22;1338;48.176;11.792;2023-08-30T14:08:07;15.80;1.00
2657;DHT22;1338;48.176;11.792;2023-08-30T14:10:36;15.80;1.00
2657;DHT22;1338;48.176;11.792;2023-08-30T14:13:05;15.90;1.00
2657;DHT22;1338;48.176;11.792;2023-08-30T14:15:34;15.50;1.00
2657;DHT22;1338;48.176;11.792;2023-08-30T14:18:05;15.40;96.00
2657;DHT22;1338;48.176;11.792;2023-08-30T14:20:34;15.10;99.90
2657;DHT22;1338;48.176;11.792;2023-08-30T14:23:03;15.00;99.90
2657;DHT22;1338;48.176;11.792;2023-08-30T14:25:32;15.00;1.00
2657;DHT22;1338;48.176;11.792;2023-08-30T14:28:00;14.70;1.00
2657;DHT22;1338;48.176;11.792;2023-08-30T14:30:30;14.40;1.00
2657;DHT22;1338;48.176;11.792;2023-08-30T14:32:58;14.20;1.00
2657;DHT22;1338;48.176;11.792;2023-08-30T14:35:28;14.20;1.00
2657;DHT22;1338;48.176;11.792;2023-08-30T14:37:59;14.10;1.00
2657;DHT22;1338;48.176;11.792;2023-08-30T14:40:28;13.90;1.00
2657;DHT22;1338;48.176;11.792;2023-08-30T14:42:56;13.90;1.00
2657;DHT22;1338;48.176;11.792;2023-08-30T14:45:25;14.00;15.20
2657;DHT22;1338;48.176;11.792;2023-08-30T14:47:53;14.00;1.00
2657;DHT22;1338;48.176;11.792;2023-08-30T14:50:22;14.20;1.00
2657;DHT22;1338;48.176;11.792;2023-08-30T14:52:52;14.60;1.00
2657;DHT22;1338;48.176;11.792;2023-08-30T14:55:22;14.80;1.00
2657;DHT22;1338;48.176;11.792;2023-08-30T14:57:51;15.10;1.00
2657;DHT22;1338;48.176;11.792;2023-08-30T15:00:20;15.30;1.00
2657;DHT22;1338;48.176;11.792;2023-08-30T15:02:49;14.90;1.00
2657;DHT22;1338;48.176;11.792;2023-08-30T15:05:18;14.80;1.00
2657;DHT22;1338;48.176;11.792;2023-08-30T15:07:47;15.40;1.00
2657;DHT22;1338;48.176;11.792;2023-08-30T15:10:17;15.80;1.00
2657;DHT22;1338;48.176;11.792;2023-08-30T15:12:46;15.90;1.00
2657;DHT22;1338;48.176;11.792;2023-08-30T15:15:14;15.90;1.00
2657;DHT22;1338;48.176;11.792;2023-08-30T15:17:42;16.00;1.00
2657;DHT22;1338;48.176;11.792;2023-08-30T15:20:11;16.30;1.00
2657;DHT22;1338;48.176;11.792;2023-08-30T15:22:40;16.80;1.00
2657;DHT22;1338;48.176;11.792;2023-08-30T15:25:08;16.90;1.00
2657;DHT22;1338;48.176;11.792;2023-08-30T15:27:39;17.20;1.00
2657;DHT22;1338;48.176;11.792;2023-08-30T15:30:08;18.20;1.00
2657;DHT22;1338;48.176;11.792;2023-08-30T15:32:37;19.90;99.90
2657;DHT22;1338;48.176;11.792;2023-08-30T15:35:07;21.60;74.80
2657;DHT22;1338;48.176;11.792;2023-08-30T15:37:36;22.30;1.00
2657;DHT22;1338;48.176;11.792;2023-08-30T15:40:05;22.30;1.00
2657;DHT22;1338;48.176;11.792;2023-08-30T15:42:37;22.80;1.00
2657;DHT22;1338;48.176;11.792;2023-08-30T15:45:07;23.20;1.00
2657;DHT22;1338;48.176;11.792;2023-08-30T15:47:36;23.30;1.00
2657;DHT22;1338;48.176;11.792;2023-08-30T15:50:05;23.70;1.00
2657;DHT22;1338;48.176;11.792;2023-08-30T15:52:34;23.20;1.00
2657;DHT22;1338;48.176;11.792;2023-08-30T15:55:03;23.60;1.00
2657;DHT22;1338;48.176;11.792;2023-08-30T15:57:33;22.70;1.00
2657;DHT22;1338;48.176;11.792;2023-08-30T16:00:04;22.80;1.00
2657;DHT22;1338;48.176;11.792;2023-08-30T16:02:34;23.00;1.00
2657;DHT22;1338;48.176;11.792;2023-08-30T16:05:03;22.10;1.00
2657;DHT22;1338;48.176;11.792;2023-08-30T16:07:32;22.00;1.00
2657;DHT22;1338;48.176;11.792;2023-08-30T16:10:00;21.80;1.00
2657;DHT22;1338;48.176;11.792;2023-08-30T16:12:29;21.80;1.00
2657;DHT22;1338;48.176;11.792;2023-08-30T16:14:57;21.10;1.00
2657;DHT22;1338;48.176;11.792;2023-08-30T16:17:27;20.90;1.00
2657;DHT22;1338;48.176;11.792;2023-08-30T16:19:56;21.50;1.00
2657;DHT22;1338;48.176;11.792;2023-08-30T16:22:25;21.40;1.00